Aviation Digital Data Service (ADDS)

Output produced by TAFs form (0646 UTC 18 February 2018)
found at http://www.aviationweather.gov/adds/tafs/
 
METAR text: RJTF 180600Z 02010KT 340V060 9999 FEW030 08/M14 Q1016
Conditions at: RJTF (CHOFU AIRPORT , JP) observed 0600 UTC 18 February 2018
Temperature: 8.0°C (46°F)
Dewpoint: -14.0°C (7°F) [RH = 19%]
Pressure (altimeter): 30.00 inches Hg (1016.0 mb)
Winds: from the NNE (20 degrees) at 12 MPH (10 knots; 5.2 m/s)
Visibility: 6 or more miles (10+ km)
Ceiling: at least 12,000 feet AGL
Clouds: few clouds at 3000 feet AGL
Weather: no significant weather observed at this time